Time;durP1;ratioP1;P1;durP2;ratioP2;P2;SDS_P1;SDS_P2;PMS_P1;PMS_P2;Temp;Humidity;BMP_temperature;BMP_pressure;BME280_temperature;BME280_humidity;BME280_pressure;Samples;Min_cycle;Max_cycle;Signal;HPM_P1;HPM_P2
2021/03/20 00:00:51;;;;;;;8.07;6.60;;;3.10;95.30;;;;;;5066019;28;20111;-37
2021/03/20 00:03:20;;;;;;;12.20;7.60;;;3.00;95.20;;;;;;5066488;28;20136;-35
2021/03/20 00:05:46;;;;;;;11.57;6.88;;;3.10;95.20;;;;;;5065726;28;20016;-36
2021/03/20 00:08:16;;;;;;;11.23;7.72;;;3.10;95.20;;;;;;5066612;28;20115;-35
2021/03/20 00:10:42;;;;;;;10.18;7.45;;;3.10;95.10;;;;;;5066022;28;20036;-35
2021/03/20 00:13:07;;;;;;;9.68;7.00;;;3.10;95.10;;;;;;5065976;28;20410;-37
2021/03/20 00:15:33;;;;;;;9.70;5.72;;;3.10;95.00;;;;;;5063828;28;20503;-37
2021/03/20 00:17:59;;;;;;;10.10;7.10;;;3.00;95.00;;;;;;5065922;28;20419;-33
2021/03/20 00:20:29;;;;;;;8.93;7.25;;;3.00;95.00;;;;;;5065763;28;20082;-37
2021/03/20 00:22:55;;;;;;;10.68;7.50;;;3.00;95.00;;;;;;5062215;28;20046;-36
2021/03/20 00:25:23;;;;;;;11.70;7.32;;;3.00;95.10;;;;;;5065641;28;20495;-37
2021/03/20 00:27:48;;;;;;;12.75;8.32;;;3.00;95.10;;;;;;5065675;28;20424;-36
2021/03/20 00:30:16;;;;;;;10.68;8.02;;;3.10;95.10;;;;;;5066121;28;20151;-35
2021/03/20 00:32:42;;;;;;;11.18;7.13;;;3.10;95.00;;;;;;5064779;28;20029;-37
2021/03/20 00:35:09;;;;;;;11.60;7.43;;;3.10;94.90;;;;;;5065820;28;20016;-38
2021/03/20 00:37:36;;;;;;;11.75;7.30;;;3.10;94.80;;;;;;5065435;28;20090;-36
2021/03/20 00:40:04;;;;;;;9.68;7.72;;;3.10;94.80;;;;;;5065140;28;20452;-34
2021/03/20 00:42:29;;;;;;;12.18;8.15;;;3.10;94.80;;;;;;5065145;28;20116;-38
2021/03/20 00:44:55;;;;;;;9.85;6.80;;;3.10;94.70;;;;;;5065244;28;20730;-32
2021/03/20 00:47:21;;;;;;;9.95;7.43;;;3.10;94.70;;;;;;5064928;28;21020;-36
2021/03/20 00:49:46;;;;;;;10.20;7.03;;;3.00;94.70;;;;;;5065804;28;20077;-33
2021/03/20 00:52:12;;;;;;;10.98;7.22;;;3.00;94.70;;;;;;5064788;28;20024;-37
2021/03/20 00:54:37;;;;;;;10.10;7.97;;;3.00;94.70;;;;;;5065148;28;20392;-37
2021/03/20 00:57:15;;;;;;;8.98;7.25;;;2.90;94.70;;;;;;5064844;28;20179;-38
2021/03/20 00:59:41;;;;;;;9.32;6.72;;;2.90;94.70;;;;;;5054643;28;20522;-34
2021/03/20 01:02:09;;;;;;;9.93;6.85;;;2.90;94.70;;;;;;5064996;28;20472;-37
2021/03/20 01:04:35;;;;;;;11.02;8.02;;;2.90;94.70;;;;;;5064953;28;20099;-36
2021/03/20 01:07:00;;;;;;;7.47;6.60;;;2.80;94.80;;;;;;5064692;28;20483;-37
2021/03/20 01:09:26;;;;;;;12.93;8.43;;;2.80;94.80;;;;;;5064396;28;20115;-35
2021/03/20 01:11:52;;;;;;;8.30;7.47;;;2.80;94.80;;;;;;5065148;28;20033;-34
2021/03/20 01:14:18;;;;;;;10.00;7.15;;;2.70;94.80;;;;;;5064011;28;20120;-34
2021/03/20 01:16:44;;;;;;;10.18;6.75;;;2.70;94.80;;;;;;5064512;28;20115;-34
2021/03/20 01:19:12;;;;;;;9.13;8.00;;;2.70;94.80;;;;;;5064712;28;20058;-34
2021/03/20 01:21:38;;;;;;;8.30;7.20;;;2.60;94.80;;;;;;5057687;28;20043;-32
2021/03/20 01:24:06;;;;;;;9.73;6.95;;;2.60;94.90;;;;;;5064486;28;20035;-37
2021/03/20 01:26:32;;;;;;;10.57;7.10;;;2.50;94.90;;;;;;5064538;28;20696;-36
2021/03/20 01:28:57;;;;;;;8.43;6.88;;;2.50;94.90;;;;;;5064262;28;20021;-35
2021/03/20 01:31:24;;;;;;;10.50;7.00;;;2.50;94.90;;;;;;5064850;28;20111;-37
2021/03/20 01:33:49;;;;;;;9.25;7.30;;;2.40;94.90;;;;;;5064290;28;20500;-37
2021/03/20 01:36:18;;;;;;;10.40;7.18;;;2.40;94.90;;;;;;5064348;28;20100;-37
2021/03/20 01:38:44;;;;;;;9.65;7.57;;;2.40;94.90;;;;;;5064270;28;20047;-35
2021/03/20 01:41:16;;;;;;;8.50;6.53;;;2.40;95.00;;;;;;5063945;28;20098;-37
2021/03/20 01:43:42;;;;;;;;;;;2.30;94.90;;;;;;5064379;28;20020;-38
2021/03/20 01:46:37;;;;;;;10.35;6.72;;;2.30;94.90;;;;;;5064108;28;19912;-36
2021/03/20 01:49:19;;;;;;;9.88;6.63;;;2.30;94.90;;;;;;5063769;28;20397;-36
2021/03/20 01:51:58;;;;;;;10.35;7.30;;;2.20;94.80;;;;;;5064629;28;20566;-33
2021/03/20 01:54:29;;;;;;;8.48;6.35;;;2.20;94.90;;;;;;5063913;28;20117;-35
2021/03/20 01:56:55;;;;;;;10.70;6.70;;;2.20;94.80;;;;;;5064425;28;20024;-37
2021/03/20 01:59:22;;;;;;;10.75;7.90;;;2.20;94.90;;;;;;5064212;28;20035;-35
2021/03/20 02:01:47;;;;;;;12.05;7.20;;;2.10;94.90;;;;;;5064044;28;20032;-38
2021/03/20 02:04:13;;;;;;;10.32;6.93;;;2.10;95.10;;;;;;5063893;28;20021;-35
2021/03/20 02:06:39;;;;;;;13.35;7.80;;;2.10;94.90;;;;;;5064143;28;20072;-38
2021/03/20 02:09:10;;;;;;;10.75;7.15;;;2.10;94.90;;;;;;5064191;28;20035;-34
2021/03/20 02:11:41;;;;;;;10.60;6.90;;;2.10;94.80;;;;;;5061362;28;20039;-36
2021/03/20 02:14:14;;;;;;;11.23;6.63;;;2.00;94.70;;;;;;5064276;28;20075;-37
2021/03/20 02:16:50;;;;;;;7.30;6.28;;;2.00;94.70;;;;;;5063541;28;20051;-34
2021/03/20 02:19:32;;;;;;;7.35;5.57;;;2.00;94.60;;;;;;5064044;28;20103;-38
2021/03/20 02:22:05;;;;;;;7.03;5.07;;;2.00;94.60;;;;;;5061470;28;20507;-35
2021/03/20 02:24:49;;;;;;;6.72;5.68;;;1.90;94.50;;;;;;5063775;28;20056;-34
2021/03/20 02:27:43;;;;;;;6.18;5.55;;;1.90;94.60;;;;;;5061658;28;20040;-36
2021/03/20 02:30:26;;;;;;;7.47;5.47;;;1.90;94.50;;;;;;5063882;28;20040;-37
2021/03/20 02:33:01;;;;;;;9.50;6.60;;;1.80;94.50;;;;;;5054352;28;20064;-38
2021/03/20 02:35:33;;;;;;;8.85;6.78;;;1.80;94.50;;;;;;5063988;28;20048;-36
2021/03/20 02:38:08;;;;;;;8.82;6.50;;;1.70;94.50;;;;;;5063819;28;20098;-34
2021/03/20 02:40:55;;;;;;;10.05;6.78;;;1.70;94.50;;;;;;5063718;28;20063;-36
2021/03/20 02:43:40;;;;;;;11.52;7.10;;;1.70;94.60;;;;;;5056009;28;20082;-36
2021/03/20 02:46:19;;;;;;;9.32;6.60;;;1.70;94.60;;;;;;5063448;28;20041;-35
2021/03/20 02:49:17;;;;;;;7.75;6.20;;;1.70;94.60;;;;;;5063741;28;20024;-37
2021/03/20 02:51:58;;;;;;;8.85;6.75;;;1.60;94.60;;;;;;5041032;28;20545;-38
2021/03/20 02:54:41;;;;;;;9.75;7.10;;;1.60;94.60;;;;;;5063521;28;20528;-35
2021/03/20 02:57:13;;;;;;;7.68;5.85;;;1.60;94.60;;;;;;5067207;28;20031;-38
2021/03/20 02:59:45;;;;;;;7.13;5.95;;;1.60;94.50;;;;;;5067258;28;20040;-37
2021/03/20 03:02:12;;;;;;;9.32;6.55;;;1.60;94.50;;;;;;5067373;28;20075;-36
2021/03/20 03:04:45;;;;;;;9.55;6.70;;;1.60;94.50;;;;;;5067114;28;20414;-39
2021/03/20 03:07:29;;;;;;;9.05;6.90;;;1.50;94.50;;;;;;5066795;28;20178;-38
2021/03/20 03:10:05;;;;;;;9.55;6.43;;;1.50;94.50;;;;;;5067957;28;20032;-32
2021/03/20 03:12:45;;;;;;;9.57;7.18;;;1.50;94.50;;;;;;5066333;28;20032;-37
2021/03/20 03:15:19;;;;;;;9.75;6.63;;;1.50;94.70;;;;;;5067441;28;20021;-37
2021/03/20 03:17:55;;;;;;;9.60;7.55;;;1.50;94.50;;;;;;5066968;28;20036;-36
2021/03/20 03:20:26;;;;;;;9.32;7.78;;;1.40;94.50;;;;;;5066789;28;20039;-38
2021/03/20 03:22:57;;;;;;;9.00;6.70;;;1.40;94.50;;;;;;5067161;28;20475;-37
2021/03/20 03:25:25;;;;;;;9.05;7.40;;;1.40;94.50;;;;;;5067127;28;20564;-35
2021/03/20 03:27:54;;;;;;;9.55;6.65;;;1.40;94.60;;;;;;5066257;28;20082;-36
2021/03/20 03:30:22;;;;;;;7.25;6.10;;;1.40;94.60;;;;;;5066803;28;20058;-35
2021/03/20 03:33:16;;;;;;;9.23;7.18;;;1.30;94.60;;;;;;5066968;28;20472;-38
2021/03/20 03:35:49;;;;;;;10.65;7.00;;;1.30;94.70;;;;;;5066579;28;20063;-37
2021/03/20 03:38:39;;;;;;;10.82;7.38;;;1.30;94.70;;;;;;5066417;28;20137;-37
2021/03/20 03:41:18;;;;;;;10.52;7.32;;;1.30;94.70;;;;;;5066968;28;20060;-35
2021/03/20 03:43:44;;;;;;;9.55;6.18;;;1.30;94.70;;;;;;5066594;28;20126;-38
2021/03/20 03:46:11;;;;;;;8.20;6.15;;;1.30;94.70;;;;;;5066653;28;20037;-37
2021/03/20 03:48:37;;;;;;;9.15;6.65;;;1.20;94.70;;;;;;5066328;28;20165;-37
2021/03/20 03:51:17;;;;;;;7.18;6.25;;;1.20;94.80;;;;;;5066345;28;20107;-38
2021/03/20 03:53:43;;;;;;;7.55;6.07;;;1.20;94.80;;;;;;5066649;28;20040;-34
2021/03/20 03:57:01;;;;;;;7.03;4.90;;;1.20;94.80;;;;;;5066530;28;20025;-34
2021/03/20 04:00:03;;;;;;;12.82;6.90;;;1.10;94.70;;;;;;5023659;28;20104;-34
2021/03/20 04:02:46;;;;;;;7.70;5.93;;;1.10;94.70;;;;;;5003933;28;20449;-37
2021/03/20 04:05:25;;;;;;;7.80;5.82;;;1.10;94.70;;;;;;5062916;28;20038;-33
2021/03/20 04:08:07;;;;;;;6.05;5.32;;;1.10;94.70;;;;;;5065936;28;20085;-37
2021/03/20 04:10:40;;;;;;;6.53;5.82;;;1.10;94.60;;;;;;5062904;28;20024;-37
2021/03/20 04:13:19;;;;;;;;;;;1.10;94.60;;;;;;5066637;28;20028;-35
2021/03/20 04:15:55;;;;;;;7.10;5.68;;;1.00;94.60;;;;;;5062627;28;19953;-37
2021/03/20 04:18:55;;;;;;;7.45;5.50;;;1.00;94.50;;;;;;5066541;28;20616;-38
2021/03/20 04:21:46;;;;;;;6.80;5.47;;;1.00;94.60;;;;;;5055597;28;20031;-36
2021/03/20 04:24:37;;;;;;;6.20;5.43;;;1.00;94.50;;;;;;5065409;28;20048;-36
2021/03/20 04:27:18;;;;;;;5.80;5.18;;;1.00;94.50;;;;;;5065468;28;20043;-39
2021/03/20 04:29:55;;;;;;;8.63;6.70;;;1.00;94.50;;;;;;5065966;28;20079;-34
2021/03/20 04:32:59;;;;;;;8.15;7.22;;;0.90;94.50;;;;;;5065539;28;20120;-37
2021/03/20 04:35:39;;;;;;;8.57;7.20;;;0.90;94.50;;;;;;5022439;28;20073;-31
2021/03/20 04:38:05;;;;;;;9.52;7.45;;;0.90;94.50;;;;;;5061669;28;20487;-37
2021/03/20 04:40:50;;;;;;;7.28;6.20;;;0.90;94.40;;;;;;5066066;28;20037;-36
2021/03/20 04:43:25;;;;;;;6.65;5.80;;;0.90;94.50;;;;;;5066185;28;20036;-39
2021/03/20 04:45:57;;;;;;;7.80;6.60;;;0.80;94.50;;;;;;5065605;28;20119;-38
2021/03/20 04:48:29;;;;;;;6.97;6.05;;;0.80;94.50;;;;;;5065833;28;20036;-36
2021/03/20 04:51:06;;;;;;;7.23;6.00;;;0.80;94.50;;;;;;5065828;28;20017;-36
2021/03/20 04:53:33;;;;;;;9.00;6.60;;;0.80;94.50;;;;;;5065226;28;20368;-36
2021/03/20 04:56:08;;;;;;;6.15;5.53;;;0.80;94.50;;;;;;5066007;28;20125;-37
2021/03/20 04:58:50;;;;;;;7.28;5.88;;;0.80;94.50;;;;;;5065459;28;20035;-37
2021/03/20 05:01:24;;;;;;;7.25;5.45;;;0.80;94.40;;;;;;5065147;28;20028;-37
2021/03/20 05:04:00;;;;;;;7.03;5.20;;;0.70;94.40;;;;;;5065722;28;20021;-35
2021/03/20 05:06:27;;;;;;;6.03;4.90;;;0.70;94.40;;;;;;5065278;28;20119;-35
2021/03/20 05:08:58;;;;;;;6.75;5.53;;;0.70;94.40;;;;;;5065403;28;20031;-36
2021/03/20 05:11:54;;;;;;;4.90;4.18;;;0.70;94.40;;;;;;5065211;28;20024;-32
2021/03/20 05:14:27;;;;;;;5.35;4.60;;;0.70;94.40;;;;;;5065045;28;20032;-34
2021/03/20 05:16:56;;;;;;;7.10;4.90;;;0.60;94.30;;;;;;5065298;28;20052;-36
2021/03/20 05:19:24;;;;;;;4.80;4.15;;;0.60;94.40;;;;;;5064318;28;20052;-36
2021/03/20 05:21:50;;;;;;;6.47;4.45;;;0.60;94.60;;;;;;5064883;28;20051;-35
2021/03/20 05:24:37;;;;;;;6.70;5.10;;;0.60;94.40;;;;;;5065402;28;20112;-35
2021/03/20 05:27:07;;;;;;;5.43;4.82;;;0.60;94.40;;;;;;5063945;28;20037;-37
2021/03/20 05:29:32;;;;;;;5.03;4.18;;;0.50;94.30;;;;;;5064568;28;20046;-37
2021/03/20 05:32:01;;;;;;;6.00;4.20;;;0.50;94.30;;;;;;5065044;28;20473;-34
2021/03/20 05:34:35;;;;;;;5.20;4.70;;;0.50;94.30;;;;;;5064209;28;20028;-35
2021/03/20 05:37:01;;;;;;;7.68;5.10;;;0.50;94.40;;;;;;5064624;28;20048;-37
2021/03/20 05:39:27;;;;;;;8.10;6.20;;;0.50;94.40;;;;;;5064602;28;20055;-35
2021/03/20 05:42:16;;;;;;;9.35;6.60;;;0.50;94.40;;;;;;5064571;28;20021;-36
2021/03/20 05:45:09;;;;;;;10.50;7.05;;;0.50;94.50;;;;;;5064647;28;20131;-38
2021/03/20 05:48:12;;;;;;;9.13;6.90;;;0.50;94.40;;;;;;5063795;28;20428;-35
2021/03/20 05:50:56;;;;;;;9.23;7.35;;;0.50;94.40;;;;;;5044948;28;20053;-35
2021/03/20 05:53:34;;;;;;;9.95;6.72;;;0.50;94.40;;;;;;5061840;28;20036;-32
2021/03/20 05:56:08;;;;;;;10.65;8.18;;;0.50;94.50;;;;;;5064176;28;20551;-36
2021/03/20 05:58:40;;;;;;;10.38;7.55;;;0.50;94.50;;;;;;5064242;28;20036;-35
2021/03/20 06:01:18;;;;;;;12.68;8.07;;;0.50;94.60;;;;;;5064889;28;20031;-33
2021/03/20 06:04:10;;;;;;;12.27;8.13;;;0.50;94.60;;;;;;5064423;28;20029;-36
2021/03/20 06:06:38;;;;;;;10.57;7.57;;;0.50;94.60;;;;;;5059274;28;20040;-36
2021/03/20 06:09:31;;;;;;;7.93;6.90;;;0.50;94.60;;;;;;5063516;28;20033;-35
2021/03/20 06:12:06;;;;;;;8.00;6.57;;;0.50;94.70;;;;;;5064425;28;20043;-38
2021/03/20 06:14:52;;;;;;;8.98;6.63;;;0.40;94.60;;;;;;5063602;28;20125;-36
2021/03/20 06:17:57;;;;;;;8.98;6.93;;;0.40;94.70;;;;;;5045273;28;20380;-36
2021/03/20 06:20:56;;;;;;;7.07;6.22;;;0.50;94.70;;;;;;5054254;28;20043;-37
2021/03/20 06:23:41;;;;;;;6.70;5.65;;;0.40;94.70;;;;;;5063859;28;20174;-37
2021/03/20 06:26:10;;;;;;;8.57;6.32;;;0.50;94.70;;;;;;5063913;28;20051;-41
2021/03/20 06:28:48;;;;;;;5.93;5.32;;;0.50;94.90;;;;;;5062890;28;20119;-35
2021/03/20 06:31:20;;;;;;;7.82;5.75;;;0.50;94.70;;;;;;5064510;28;20417;-35
2021/03/20 06:33:53;;;;;;;6.28;5.68;;;0.50;94.60;;;;;;5068162;28;20028;-35
2021/03/20 06:36:33;;;;;;;6.65;5.38;;;0.60;94.60;;;;;;5067286;28;20032;-34
2021/03/20 06:39:02;;;;;;;6.47;4.78;;;0.60;94.60;;;;;;5066804;28;20035;-38
2021/03/20 06:41:53;;;;;;;5.85;5.00;;;0.60;94.60;;;;;;5066444;28;20020;-35
2021/03/20 06:44:22;;;;;;;7.00;5.47;;;0.70;94.50;;;;;;5065598;28;20488;-40
2021/03/20 06:46:50;;;;;;;9.27;6.15;;;0.70;94.50;;;;;;5066239;28;20036;-36
2021/03/20 06:49:47;;;;;;;10.32;7.18;;;0.80;94.50;;;;;;5066209;28;20024;-37
2021/03/20 06:52:21;;;;;;;8.98;6.85;;;0.80;94.40;;;;;;5067310;28;20066;-39
2021/03/20 06:54:54;;;;;;;7.03;5.90;;;0.90;94.30;;;;;;5067204;28;20044;-41
2021/03/20 06:57:19;;;;;;;;;;;0.90;94.20;;;;;;5068679;28;20081;-37
2021/03/20 06:59:45;;;;;;;7.93;4.95;;;1.00;94.20;;;;;;5067199;28;20255;-38
2021/03/20 07:02:33;;;;;;;7.35;4.63;;;1.00;94.10;;;;;;5068357;28;20048;-38
2021/03/20 07:05:18;;;;;;;5.72;4.45;;;1.00;94.00;;;;;;5067326;28;20041;-38
2021/03/20 07:07:59;;;;;;;5.88;4.38;;;1.10;94.00;;;;;;5067581;28;20044;-36
2021/03/20 07:10:46;;;;;;;6.72;4.38;;;1.10;93.90;;;;;;5067410;28;20029;-35
2021/03/20 07:13:20;;;;;;;7.93;4.63;;;1.20;93.70;;;;;;5066912;28;20401;-36
2021/03/20 07:16:03;;;;;;;6.13;4.35;;;1.20;93.50;;;;;;5067484;28;20020;-34
2021/03/20 07:18:43;;;;;;;4.40;3.90;;;1.30;93.40;;;;;;5047788;28;20052;-34
2021/03/20 07:21:24;;;;;;;4.15;3.35;;;1.40;93.40;;;;;;5062899;28;20033;-37
2021/03/20 07:24:03;;;;;;;4.55;3.38;;;1.40;93.30;;;;;;5047304;28;20045;-35
2021/03/20 07:26:32;;;;;;;3.92;2.90;;;1.40;93.30;;;;;;5064314;28;20040;-38
2021/03/20 07:29:01;;;;;;;3.78;3.38;;;1.40;93.20;;;;;;5067811;28;20020;-35
2021/03/20 07:31:29;;;;;;;3.78;2.90;;;1.50;93.30;;;;;;5066973;28;20147;-38
2021/03/20 07:34:11;;;;;;;4.85;3.17;;;1.50;93.20;;;;;;5067101;28;20025;-33
2021/03/20 07:36:39;;;;;;;3.07;2.70;;;1.60;93.20;;;;;;5066905;28;20418;-38
2021/03/20 07:39:05;;;;;;;3.17;2.75;;;1.60;93.10;;;;;;5066984;28;20293;-35
2021/03/20 07:42:02;;;;;;;3.28;2.53;;;1.60;93.10;;;;;;5065884;28;20090;-39
2021/03/20 07:44:45;;;;;;;3.40;2.72;;;1.70;93.10;;;;;;5047081;28;20091;-35
2021/03/20 07:47:13;;;;;;;3.83;2.78;;;1.80;93.00;;;;;;5063997;28;20036;-38
2021/03/20 07:49:39;;;;;;;4.03;3.22;;;1.80;93.00;;;;;;5066830;28;20901;-35
2021/03/20 07:52:26;;;;;;;3.70;2.78;;;1.90;92.90;;;;;;5066369;28;20147;-37
2021/03/20 07:55:17;;;;;;;2.80;2.28;;;2.00;92.80;;;;;;5046505;28;20135;-36
2021/03/20 07:58:00;;;;;;;3.15;2.60;;;2.00;92.80;;;;;;5065413;28;20043;-36
2021/03/20 08:00:45;;;;;;;4.90;3.20;;;2.10;92.70;;;;;;5066565;28;20032;-36
2021/03/20 08:03:17;;;;;;;3.67;2.50;;;2.20;92.60;;;;;;5066564;28;20029;-36
2021/03/20 08:05:43;;;;;;;4.03;3.42;;;2.30;92.50;;;;;;5066606;28;20093;-39
2021/03/20 08:08:20;;;;;;;4.40;3.30;;;2.30;92.10;;;;;;5065765;28;20801;-35
2021/03/20 08:10:57;;;;;;;4.18;3.30;;;2.40;92.10;;;;;;5066415;28;20444;-38
2021/03/20 08:13:49;;;;;;;4.68;3.30;;;2.40;92.10;;;;;;5066402;28;20028;-37
2021/03/20 08:16:18;;;;;;;4.38;2.97;;;2.50;92.00;;;;;;5065410;28;20040;-32
2021/03/20 08:18:47;;;;;;;5.10;3.30;;;2.50;92.00;;;;;;5066139;28;20013;-38
2021/03/20 08:21:15;;;;;;;4.88;2.75;;;2.60;91.90;;;;;;5066014;28;20021;-36
2021/03/20 08:24:06;;;;;;;5.43;3.60;;;2.70;91.90;;;;;;5064457;28;20044;-36
2021/03/20 08:27:01;;;;;;;5.00;3.63;;;2.70;91.60;;;;;;5045963;28;20051;-37
2021/03/20 08:29:49;;;;;;;4.38;3.25;;;2.80;91.70;;;;;;5065655;28;20082;-36
2021/03/20 08:32:39;;;;;;;4.65;3.17;;;3.00;91.50;;;;;;5065878;28;20067;-34
2021/03/20 08:35:13;;;;;;;5.10;3.13;;;3.20;91.40;;;;;;5056094;28;20048;-36
2021/03/20 08:38:09;;;;;;;4.05;3.40;;;3.40;91.30;;;;;;5063851;28;20167;-37
2021/03/20 08:40:38;;;;;;;4.38;3.13;;;3.50;91.10;;;;;;5064924;28;20093;-37
2021/03/20 08:43:41;;;;;;;5.45;3.85;;;3.70;90.80;;;;;;5064248;28;20025;-37
2021/03/20 08:46:23;;;;;;;4.22;3.25;;;3.80;90.50;;;;;;5061123;28;20028;-37
2021/03/20 08:49:20;;;;;;;4.77;3.27;;;3.80;90.50;;;;;;5064438;28;20047;-34
2021/03/20 08:52:05;;;;;;;5.82;3.58;;;3.90;90.50;;;;;;5042380;28;20344;-36
2021/03/20 08:55:09;;;;;;;6.60;3.60;;;3.80;90.50;;;;;;5062400;28;20071;-37
2021/03/20 08:58:19;;;;;;;3.72;3.33;;;3.80;90.50;;;;;;5064472;28;20393;-38
2021/03/20 09:01:04;;;;;;;5.03;3.95;;;3.80;90.50;;;;;;5055055;28;20467;-39
2021/03/20 09:03:35;;;;;;;5.57;3.97;;;3.90;90.10;;;;;;5064257;28;20047;-36
2021/03/20 09:06:10;;;;;;;4.82;4.32;;;3.90;90.10;;;;;;5064204;28;20086;-37
2021/03/20 09:08:41;;;;;;;4.03;3.63;;;3.90;90.10;;;;;;5064597;28;20431;-36
2021/03/20 09:11:24;;;;;;;5.82;4.32;;;3.90;89.90;;;;;;5063372;28;20028;-34
2021/03/20 09:13:55;;;;;;;6.03;4.03;;;3.90;90.00;;;;;;5064306;28;20033;-38
2021/03/20 09:16:33;;;;;;;6.55;4.60;;;3.90;90.10;;;;;;5063931;28;20049;-37
2021/03/20 09:19:04;;;;;;;4.97;4.07;;;3.90;90.20;;;;;;5064243;28;20074;-36
2021/03/20 09:21:35;;;;;;;4.85;3.58;;;3.90;90.30;;;;;;5064261;28;20071;-38
2021/03/20 09:24:07;;;;;;;4.78;3.58;;;3.90;90.40;;;;;;5064927;28;20488;-32
2021/03/20 09:26:39;;;;;;;4.53;3.65;;;4.00;90.30;;;;;;5054969;28;20051;-35
2021/03/20 09:29:08;;;;;;;4.88;3.42;;;4.00;90.40;;;;;;5065077;28;20037;-38
2021/03/20 09:31:39;;;;;;;4.85;3.90;;;4.10;90.30;;;;;;5064528;28;20066;-38
2021/03/20 09:34:28;;;;;;;4.97;3.70;;;4.10;90.10;;;;;;5063746;28;20132;-36
2021/03/20 09:36:54;;;;;;;5.47;3.53;;;4.20;90.10;;;;;;5054783;28;20495;-34
2021/03/20 09:39:43;;;;;;;4.13;3.72;;;4.20;89.40;;;;;;5064694;28;20036;-35
2021/03/20 09:42:30;;;;;;;4.18;3.72;;;4.30;89.30;;;;;;5055627;28;20067;-35
2021/03/20 09:45:00;;;;;;;4.65;3.13;;;4.40;87.90;;;;;;5065053;28;20023;-33
2021/03/20 09:47:54;;;;;;;5.25;3.80;;;4.50;88.00;;;;;;5064633;28;20075;-36
2021/03/20 09:50:19;;;;;;;4.75;4.25;;;4.50;86.30;;;;;;5064139;28;20112;-35
2021/03/20 09:52:57;;;;;;;4.22;3.53;;;4.60;86.50;;;;;;5064649;28;20093;-41
2021/03/20 09:55:28;;;;;;;5.50;3.67;;;4.60;86.70;;;;;;5063920;28;20045;-36
2021/03/20 09:58:18;;;;;;;4.45;3.17;;;4.70;86.80;;;;;;5065089;28;20123;-35
2021/03/20 10:00:50;;;;;;;3.72;3.33;;;4.70;86.50;;;;;;5056572;28;20039;-38
2021/03/20 10:03:40;;;;;;;4.20;3.35;;;4.70;86.40;;;;;;5064468;28;20427;-36
2021/03/20 10:06:27;;;;;;;3.40;3.00;;;4.80;86.40;;;;;;5063705;28;20054;-38
2021/03/20 10:09:07;;;;;;;4.85;3.97;;;4.80;86.70;;;;;;5064178;28;20024;-34
2021/03/20 10:11:45;;;;;;;5.10;4.10;;;4.90;85.10;;;;;;5064661;28;20116;-33
2021/03/20 10:14:29;;;;;;;4.03;3.50;;;4.90;85.60;;;;;;5064744;28;20025;-35
2021/03/20 10:17:16;;;;;;;4.22;3.50;;;5.00;85.30;;;;;;5064648;28;20039;-37
2021/03/20 10:19:47;;;;;;;3.50;3.20;;;5.10;85.40;;;;;;5044746;28;20033;-36
2021/03/20 10:22:26;;;;;;;3.22;2.80;;;5.20;84.90;;;;;;5060220;28;20063;-37
2021/03/20 10:24:57;;;;;;;3.97;3.47;;;5.20;84.90;;;;;;5044478;28;20456;-39
2021/03/20 10:27:30;;;;;;;5.65;3.00;;;5.30;84.90;;;;;;5061066;28;20037;-36
2021/03/20 10:30:15;;;;;;;3.80;2.78;;;5.30;84.80;;;;;;5044120;28;20052;-37
2021/03/20 10:32:59;;;;;;;3.17;2.88;;;5.40;84.80;;;;;;5061010;28;20095;-36
2021/03/20 10:35:25;;;;;;;3.63;2.95;;;5.50;84.60;;;;;;5064630;28;20059;-32
2021/03/20 10:37:51;;;;;;;3.05;2.75;;;5.50;84.40;;;;;;5063655;28;20025;-37
2021/03/20 10:40:24;;;;;;;4.05;3.63;;;5.60;83.80;;;;;;5064107;28;20103;-36
2021/03/20 10:42:54;;;;;;;4.43;3.63;;;5.60;82.60;;;;;;5064015;28;20070;-35
2021/03/20 10:45:31;;;;;;;3.90;3.22;;;5.70;83.10;;;;;;5064253;28;20127;-34
2021/03/20 10:48:11;;;;;;;4.35;3.75;;;5.80;83.30;;;;;;5064355;28;20117;-36
2021/03/20 10:50:40;;;;;;;5.43;4.15;;;5.80;81.90;;;;;;5043650;28;20064;-37
2021/03/20 10:53:14;;;;;;;5.13;3.97;;;5.90;82.80;;;;;;5059475;28;20640;-38
2021/03/20 10:56:06;;;;;;;4.22;3.83;;;6.00;82.40;;;;;;5063738;28;20048;-38
2021/03/20 10:58:39;;;;;;;5.10;4.13;;;6.00;81.50;;;;;;5063307;28;20379;-36
2021/03/20 11:01:05;;;;;;;7.88;4.38;;;6.10;82.20;;;;;;5064289;28;20029;-35
2021/03/20 11:03:38;;;;;;;4.80;4.10;;;6.10;81.50;;;;;;5064334;28;20116;-39
2021/03/20 11:06:20;;;;;;;5.00;4.28;;;6.20;80.10;;;;;;5049611;28;20139;-36
2021/03/20 11:08:49;;;;;;;5.55;4.35;;;6.30;80.60;;;;;;5061333;28;20124;-33
2021/03/20 11:11:30;;;;;;;5.72;4.47;;;6.30;80.40;;;;;;5061002;28;20033;-38
2021/03/20 11:14:04;;;;;;;6.18;4.63;;;6.40;80.10;;;;;;5063191;28;20036;-36
2021/03/20 11:16:30;;;;;;;5.05;4.13;;;6.40;79.80;;;;;;5044431;28;20041;-39
2021/03/20 11:19:17;;;;;;;5.15;4.47;;;6.50;79.60;;;;;;5061753;28;20054;-37
2021/03/20 11:21:49;;;;;;;5.43;4.22;;;6.60;78.00;;;;;;5045570;28;20491;-35
2021/03/20 11:24:26;;;;;;;4.85;4.03;;;6.70;77.00;;;;;;5063271;28;20032;-37
2021/03/20 11:26:53;;;;;;;4.65;3.80;;;6.80;77.90;;;;;;5055318;28;20058;-37
2021/03/20 11:29:28;;;;;;;4.88;4.00;;;6.80;77.80;;;;;;5067487;28;20032;-36
2021/03/20 11:32:03;;;;;;;4.43;3.80;;;6.90;77.40;;;;;;5067269;28;20172;-38
2021/03/20 11:34:37;;;;;;;4.43;3.55;;;6.90;78.00;;;;;;5067715;28;20055;-36
2021/03/20 11:37:07;;;;;;;3.95;3.35;;;7.00;78.40;;;;;;5067282;28;20099;-33
2021/03/20 11:39:33;;;;;;;5.32;3.92;;;7.00;78.20;;;;;;5066326;28;20384;-39
2021/03/20 11:42:03;;;;;;;5.13;3.85;;;7.00;77.80;;;;;;5067626;28;20025;-37
2021/03/20 11:44:30;;;;;;;4.07;3.60;;;7.10;77.50;;;;;;5067584;28;20274;-38
2021/03/20 11:47:02;;;;;;;4.30;3.42;;;7.10;77.50;;;;;;5066526;28;20042;-37
2021/03/20 11:49:43;;;;;;;4.22;3.60;;;7.10;77.90;;;;;;5067201;28;20028;-38
2021/03/20 11:52:15;;;;;;;3.67;3.38;;;7.20;77.60;;;;;;5064493;28;20100;-37
2021/03/20 11:54:41;;;;;;;4.20;3.78;;;7.20;76.70;;;;;;5066231;28;20055;-34
2021/03/20 11:57:31;;;;;;;4.38;3.70;;;7.30;76.90;;;;;;5063487;28;20024;-38
2021/03/20 11:59:57;;;;;;;5.07;3.90;;;7.30;77.40;;;;;;5066216;28;20024;-36
2021/03/20 12:02:25;;;;;;;5.88;4.25;;;7.30;76.40;;;;;;5066816;28;20115;-39
2021/03/20 12:05:09;;;;;;;5.03;4.20;;;7.40;76.50;;;;;;5059504;28;20045;-40
2021/03/20 12:07:35;;;;;;;4.80;4.30;;;7.40;73.70;;;;;;5063932;28;20048;-37
2021/03/20 12:10:24;;;;;;;7.78;4.20;;;7.40;74.70;;;;;;5064271;28;20435;-37
2021/03/20 12:12:56;;;;;;;4.35;3.92;;;7.50;75.10;;;;;;5066571;28;20046;-38
2021/03/20 12:15:36;;;;;;;4.90;4.30;;;7.50;75.10;;;;;;5066365;28;20525;-34
2021/03/20 12:18:19;;;;;;;5.57;4.55;;;7.60;74.80;;;;;;5066603;28;20020;-36
2021/03/20 12:20:45;;;;;;;5.45;4.18;;;7.70;74.60;;;;;;5066387;28;20051;-35
2021/03/20 12:23:21;;;;;;;5.95;3.95;;;7.80;74.10;;;;;;5065517;28;20405;-35
2021/03/20 12:25:52;;;;;;;5.80;4.28;;;7.90;74.40;;;;;;5065697;28;20028;-34
2021/03/20 12:28:42;;;;;;;5.60;4.90;;;7.90;73.30;;;;;;5065042;28;20492;-37
2021/03/20 12:31:13;;;;;;;5.68;4.30;;;7.90;73.60;;;;;;5066044;28;20460;-38
2021/03/20 12:33:53;;;;;;;4.75;4.20;;;8.00;73.90;;;;;;5068890;28;20035;-36
2021/03/20 12:36:40;;;;;;;6.03;4.60;;;8.00;73.20;;;;;;5065931;28;20036;-35
2021/03/20 12:39:12;;;;;;;4.70;4.18;;;8.10;72.50;;;;;;5066135;28;20066;-33
2021/03/20 12:41:40;;;;;;;4.63;4.20;;;8.10;72.80;;;;;;5065446;28;20567;-37
2021/03/20 12:44:24;;;;;;;4.68;4.18;;;8.20;73.40;;;;;;5064087;28;20074;-35
2021/03/20 12:46:57;;;;;;;6.03;4.65;;;8.20;72.50;;;;;;5064966;28;20072;-35
2021/03/20 12:49:24;;;;;;;;;;;8.30;72.20;;;;;;5066637;28;20055;-39
2021/03/20 12:51:57;;;;;;;7.43;4.35;;;8.40;71.80;;;;;;5065328;28;20388;-37
2021/03/20 12:54:25;;;;;;;4.80;4.30;;;8.50;71.40;;;;;;5064311;28;20115;-37
2021/03/20 12:56:52;;;;;;;4.70;4.20;;;8.60;70.60;;;;;;5064106;28;20021;-39
2021/03/20 12:59:18;;;;;;;7.18;4.28;;;8.70;70.90;;;;;;5064978;28;20032;-38
2021/03/20 13:01:43;;;;;;;5.00;4.10;;;8.70;70.50;;;;;;5076153;28;20046;-38
2021/03/20 13:04:17;;;;;;;3.80;3.40;;;8.70;69.80;;;;;;5066314;28;20877;-38
2021/03/20 13:06:42;;;;;;;5.00;3.60;;;8.70;70.80;;;;;;5065884;28;20055;-37
2021/03/20 13:09:09;;;;;;;3.83;3.47;;;8.70;69.20;;;;;;5062104;28;20017;-37
2021/03/20 13:11:35;;;;;;;3.78;3.10;;;8.60;68.90;;;;;;5072821;28;20684;-38
2021/03/20 13:14:01;;;;;;;5.32;3.60;;;8.70;68.40;;;;;;5063173;28;20108;-36
2021/03/20 13:16:27;;;;;;;4.25;3.35;;;8.70;68.20;;;;;;5069026;28;20173;-39
2021/03/20 13:18:54;;;;;;;4.07;3.13;;;8.80;68.00;;;;;;5075070;28;20047;-36
2021/03/20 13:21:23;;;;;;;6.22;4.15;;;8.90;68.40;;;;;;5077500;28;20489;-37
2021/03/20 13:23:52;;;;;;;4.45;3.00;;;9.00;66.30;;;;;;5062950;28;20915;-38
2021/03/20 13:26:18;;;;;;;5.50;3.47;;;9.00;66.60;;;;;;5075309;28;20025;-36
2021/03/20 13:28:46;;;;;;;4.20;3.65;;;9.00;64.10;;;;;;5071642;28;20043;-39
2021/03/20 13:31:14;;;;;;;4.90;3.65;;;9.00;66.00;;;;;;5072455;28;20085;-40
2021/03/20 13:33:47;;;;;;;5.05;4.30;;;9.10;67.80;;;;;;5067083;28;20032;-38
2021/03/20 13:36:13;;;;;;;4.80;4.00;;;9.10;67.30;;;;;;5068718;28;20017;-39
2021/03/20 13:38:39;;;;;;;6.80;4.25;;;9.20;66.50;;;;;;5073099;28;20065;-39
2021/03/20 13:41:05;;;;;;;4.28;3.70;;;9.30;67.10;;;;;;5070495;28;20468;-38